Time,TemperatureF,DewpointF,PressureIn,WindDirection,WindDirectionDegrees,WindSpeedMPH,WindSpeedGustMPH,Humidity,HourlyPrecipIn,Conditions,Clouds,dailyrainin,SoftwareType,DateUTC
2013-11-22 00:22:00,71.0,71.0,30.18,ENE,70,2.0,5.0,100,0.00,,,0.05,,2013-11-22 05:22:00,
2013-11-22 00:53:00,71.0,71.0,30.18,NE,55,3.0,4.0,100,0.00,,,0.05,,2013-11-22 05:53:00,
2013-11-22 01:22:00,71.0,71.0,30.17,NE,42,6.0,7.0,100,0.00,,,0.05,,2013-11-22 06:22:00,
2013-11-22 01:52:00,71.0,71.0,30.17,NNE,30,7.0,9.0,100,0.00,,,0.05,,2013-11-22 06:52:00,
2013-11-22 02:21:00,71.0,71.0,30.16,NNE,30,6.0,9.0,100,0.00,,,0.05,,2013-11-22 07:21:00,
2013-11-22 02:52:00,71.0,71.0,30.16,NE,39,5.0,8.0,100,0.00,,,0.05,,2013-11-22 07:52:00,
2013-11-22 03:21:00,71.0,71.0,30.16,North,7,5.0,9.0,100,0.00,,,0.05,,2013-11-22 08:21:00,
2013-11-22 03:52:00,71.0,71.0,30.16,ENE,62,6.0,9.0,100,0.00,,,0.05,,2013-11-22 08:52:00,
2013-11-22 04:21:00,71.0,71.0,30.16,NE,48,7.0,9.0,100,0.00,,,0.05,,2013-11-22 09:21:00,
2013-11-22 04:53:00,72.0,72.0,30.15,ENE,62,6.0,10.0,100,0.00,,,0.05,,2013-11-22 09:53:00,
2013-11-22 05:23:00,72.0,72.0,30.16,ENE,60,7.0,10.0,100,0.00,,,0.05,,2013-11-22 10:23:00,
2013-11-22 05:53:00,71.0,71.0,30.16,East,98,4.0,8.0,100,0.00,,,0.05,,2013-11-22 10:53:00,
2013-11-22 06:22:00,71.0,71.0,30.16,ENE,58,5.0,11.0,100,0.00,,,0.05,,2013-11-22 11:22:00,
2013-11-22 06:52:00,71.0,71.0,30.17,ENE,66,4.0,7.0,100,0.00,,,0.05,,2013-11-22 11:52:00,
2013-11-22 07:22:00,71.0,71.0,30.16,ENE,63,4.0,5.0,100,0.00,,,0.05,,2013-11-22 12:22:00,
2013-11-22 07:52:00,71.0,71.0,30.16,NE,53,6.0,7.0,100,0.00,,,0.05,,2013-11-22 12:52:00,
2013-11-22 08:22:00,72.0,72.0,30.17,East,98,5.0,8.0,100,0.00,,,0.05,,2013-11-22 13:22:00,
2013-11-22 08:52:00,73.0,73.0,30.18,ENE,68,8.0,11.0,100,0.00,,,0.05,,2013-11-22 13:52:00,
2013-11-22 09:22:00,74.0,74.0,30.19,NE,44,8.0,10.0,100,0.00,,,0.05,,2013-11-22 14:22:00,
2013-11-22 09:52:00,77.0,76.0,30.19,East,98,7.0,11.0,96,0.00,,,0.05,,2013-11-22 14:52:00,
2013-11-22 10:22:00,78.0,74.0,30.19,ENE,63,10.0,14.0,87,0.00,,,0.05,,2013-11-22 15:22:00,
2013-11-22 10:54:00,80.0,72.0,30.19,ENE,66,9.0,16.0,77,0.00,,,0.05,,2013-11-22 15:54:00,
2013-11-22 11:23:00,82.0,70.0,30.18,East,98,11.0,16.0,67,0.00,,,0.05,,2013-11-22 16:23:00,
2013-11-22 11:53:00,81.0,68.0,30.17,ESE,120,9.0,17.0,64,0.00,,,0.05,,2013-11-22 16:53:00,
2013-11-22 12:22:00,83.0,67.0,30.16,ESE,103,10.0,16.0,59,0.00,,,0.05,,2013-11-22 17:22:00,
2013-11-22 12:52:00,82.0,67.0,30.14,East,90,9.0,15.0,60,0.00,,,0.05,,2013-11-22 17:52:00,
2013-11-22 13:22:00,83.0,67.0,30.13,ENE,68,12.0,21.0,59,0.00,,,0.05,,2013-11-22 18:22:00,
2013-11-22 13:52:00,81.0,69.0,30.12,ENE,58,7.0,14.0,67,0.00,,,0.05,,2013-11-22 18:52:00,
2013-11-22 14:22:00,80.0,68.0,30.12,East,101,8.0,13.0,66,0.00,,,0.05,,2013-11-22 19:22:00,
2013-11-22 14:52:00,82.0,67.0,30.11,ESE,110,9.0,13.0,60,0.00,,,0.05,,2013-11-22 19:52:00,
2013-11-22 15:22:00,82.0,66.0,30.10,East,101,10.0,14.0,58,0.00,,,0.05,,2013-11-22 20:22:00,
2013-11-22 15:52:00,83.0,67.0,30.10,ENE,58,12.0,18.0,58,0.00,,,0.05,,2013-11-22 20:52:00,
2013-11-22 16:22:00,81.0,66.0,30.11,ENE,76,13.0,18.0,60,0.00,,,0.05,,2013-11-22 21:22:00,
2013-11-22 16:53:00,79.0,66.0,30.11,East,90,10.0,13.0,64,0.00,,,0.05,,2013-11-22 21:53:00,
2013-11-22 17:23:00,79.0,67.0,30.11,ENE,62,9.0,13.0,67,0.00,,,0.05,,2013-11-22 22:23:00,
2013-11-22 17:53:00,77.0,66.0,30.12,ENE,68,7.0,11.0,68,0.00,,,0.05,,2013-11-22 22:53:00,
2013-11-22 18:22:00,76.0,67.0,30.12,East,80,6.0,10.0,75,0.00,,,0.05,,2013-11-22 23:22:00,
2013-11-22 18:53:00,75.0,67.0,30.12,ENE,75,6.0,11.0,77,0.00,,,0.05,,2013-11-22 23:53:00,
2013-11-22 19:21:00,74.0,67.0,30.13,ENE,75,7.0,13.0,78,0.00,,,0.05,,2013-11-23 00:21:00,
2013-11-22 19:52:00,74.0,67.0,30.14,East,83,7.0,12.0,80,0.00,,,0.05,,2013-11-23 00:52:00,
2013-11-22 20:22:00,73.0,68.0,30.14,East,90,7.0,10.0,85,0.00,,,0.05,,2013-11-23 01:22:00,
2013-11-22 20:53:00,72.0,69.0,30.14,NE,56,6.0,9.0,89,0.00,,,0.05,,2013-11-23 01:53:00,
2013-11-22 21:22:00,72.0,70.0,30.14,ENE,77,5.0,8.0,93,0.00,,,0.05,,2013-11-23 02:22:00,
2013-11-22 21:53:00,71.0,70.0,30.14,East,80,4.0,8.0,97,0.00,,,0.05,,2013-11-23 02:53:00,
2013-11-22 22:22:00,70.0,70.0,30.15,NE,48,5.0,9.0,99,0.00,,,0.05,,2013-11-23 03:22:00,
2013-11-22 22:53:00,70.0,70.0,30.14,ENE,69,6.0,10.0,99,0.00,,,0.05,,2013-11-23 03:53:00,
2013-11-22 23:23:00,70.0,70.0,30.14,ENE,68,4.0,8.0,99,0.00,,,0.05,,2013-11-23 04:23:00,
2013-11-22 23:53:00,70.0,70.0,30.13,NE,55,3.0,6.0,100,0.00,,,0.05,,2013-11-23 04:53:00,